createdAt,value
2019-02-16T00:01:09.859Z,12.10
2019-02-16T00:03:39.632Z,12.10
2019-02-16T00:06:09.434Z,12.10
2019-02-16T00:08:39.143Z,12.10
2019-02-16T00:11:08.779Z,12.10
2019-02-16T00:13:38.540Z,12.10
2019-02-16T00:16:08.203Z,12.00
2019-02-16T00:18:37.976Z,12.00
2019-02-16T00:21:07.624Z,11.90
2019-02-16T00:23:37.370Z,11.90
2019-02-16T00:26:07.129Z,11.80
2019-02-16T00:28:36.773Z,11.80
2019-02-16T00:31:06.291Z,11.80
2019-02-16T00:33:35.955Z,11.70
2019-02-16T00:36:06.032Z,11.70
2019-02-16T00:38:35.772Z,11.70
2019-02-16T00:41:05.406Z,11.70
2019-02-16T00:43:35.157Z,11.80
2019-02-16T00:46:04.908Z,11.90
2019-02-16T00:48:34.778Z,11.90
2019-02-16T00:51:12.932Z,11.70
2019-02-16T00:53:35.802Z,11.60
2019-02-16T00:56:05.501Z,11.40
2019-02-16T00:58:35.118Z,11.30
2019-02-16T01:01:04.935Z,11.20
2019-02-16T01:03:34.561Z,11.10
2019-02-16T01:06:04.306Z,11.00
2019-02-16T01:08:34.050Z,11.00
2019-02-16T01:11:03.680Z,11.00
2019-02-16T01:13:33.620Z,10.90
2019-02-16T01:16:03.263Z,10.80
2019-02-16T01:18:33.140Z,10.80
2019-02-16T01:21:03.184Z,10.90
2019-02-16T01:23:32.947Z,10.80
2019-02-16T01:26:02.583Z,10.80
2019-02-16T01:28:32.491Z,10.70
2019-02-16T01:31:02.530Z,10.70
2019-02-16T01:33:32.168Z,10.70
2019-02-16T01:36:01.864Z,10.70
2019-02-16T01:38:31.523Z,10.70
2019-02-16T01:41:01.289Z,10.60
2019-02-16T01:43:31.132Z,10.60
2019-02-16T01:46:01.186Z,10.50
2019-02-16T01:48:30.843Z,10.50
2019-02-16T01:51:00.672Z,10.70
2019-02-16T01:53:30.429Z,10.70
2019-02-16T01:56:00.207Z,10.60
2019-02-16T01:58:29.887Z,10.60
2019-02-16T02:00:59.880Z,10.60
2019-02-16T02:03:29.980Z,10.50
2019-02-16T02:05:59.691Z,10.40
2019-02-16T02:08:29.400Z,10.40
2019-02-16T02:10:59.232Z,10.40
2019-02-16T02:13:28.886Z,10.40
2019-02-16T02:15:58.534Z,10.30
2019-02-16T02:18:28.257Z,10.30
2019-02-16T02:20:58.010Z,10.20
2019-02-16T02:23:27.659Z,10.20
2019-02-16T02:25:57.432Z,10.20
2019-02-16T02:28:27.134Z,10.10
2019-02-16T02:30:56.863Z,10.10
2019-02-16T02:33:26.903Z,10.00
2019-02-16T02:35:56.554Z,10.00
2019-02-16T02:38:26.278Z,10.10
2019-02-16T02:40:56.232Z,10.20
2019-02-16T02:43:25.905Z,10.20
2019-02-16T02:45:55.576Z,10.20
2019-02-16T02:48:25.234Z,10.20
2019-02-16T02:50:54.983Z,10.30
2019-02-16T02:53:31.000Z,10.20
2019-02-16T02:55:56.647Z,10.30
2019-02-16T02:58:26.395Z,10.30
2019-02-16T03:00:56.131Z,10.30
2019-02-16T03:03:25.782Z,10.20
2019-02-16T03:05:55.500Z,10.20
2019-02-16T03:08:25.510Z,10.00
2019-02-16T03:10:55.141Z,9.90
2019-02-16T03:13:24.817Z,9.90
2019-02-16T03:15:54.529Z,9.90
2019-02-16T03:18:24.462Z,9.90
2019-02-16T03:20:54.169Z,9.80
2019-02-16T03:23:23.964Z,9.70
2019-02-16T03:26:15.285Z,9.60
2019-02-16T03:28:53.978Z,9.50
2019-02-16T03:31:35.608Z,9.50
2019-02-16T03:34:11.266Z,9.40
2019-02-16T03:37:05.236Z,9.30
2019-02-16T03:39:36.455Z,9.20
2019-02-16T03:42:06.167Z,9.10
2019-02-16T03:44:35.849Z,9.00
2019-02-16T03:47:05.481Z,9.00
2019-02-16T03:49:35.284Z,8.90
2019-02-16T03:52:13.238Z,8.90
2019-02-16T03:54:36.381Z,8.90
2019-02-16T03:57:06.040Z,9.00
2019-02-16T03:59:35.861Z,9.00
2019-02-16T04:02:05.490Z,9.00
2019-02-16T04:04:35.129Z,9.00
2019-02-16T04:07:04.856Z,9.00
2019-02-16T04:09:34.496Z,9.00
2019-02-16T04:12:04.264Z,9.10
2019-02-16T04:14:34.011Z,9.10
2019-02-16T04:17:03.736Z,9.10
2019-02-16T04:19:33.429Z,9.10
2019-02-16T04:22:03.126Z,9.20
2019-02-16T04:24:32.874Z,9.20
2019-02-16T04:27:02.600Z,9.30
2019-02-16T04:29:32.225Z,9.30
2019-02-16T04:32:01.932Z,9.40
2019-02-16T04:34:31.724Z,9.50
2019-02-16T04:37:01.366Z,9.50
2019-02-16T04:39:31.050Z,9.50
2019-02-16T04:42:00.671Z,9.30
2019-02-16T04:44:30.279Z,9.30
2019-02-16T04:46:59.953Z,9.10
2019-02-16T04:49:29.679Z,9.00
2019-02-16T04:51:59.317Z,8.90
2019-02-16T04:54:28.921Z,8.90
2019-02-16T04:56:58.722Z,8.90
2019-02-16T04:59:28.398Z,8.80
2019-02-16T05:01:58.114Z,8.80
2019-02-16T05:04:27.785Z,8.70
2019-02-16T05:06:57.430Z,8.70
2019-02-16T05:09:27.163Z,8.70
2019-02-16T05:11:56.761Z,8.60
2019-02-16T05:14:26.494Z,8.60
2019-02-16T05:16:56.095Z,8.70
2019-02-16T05:19:25.785Z,8.70
2019-02-16T05:21:55.419Z,8.70
2019-02-16T05:24:25.074Z,8.70
2019-02-16T05:26:55.085Z,8.70
2019-02-16T05:29:25.116Z,8.70
2019-02-16T05:31:54.805Z,8.70
2019-02-16T05:34:24.457Z,8.80
2019-02-16T05:36:54.492Z,8.70
2019-02-16T05:39:24.186Z,8.60
2019-02-16T05:41:53.964Z,8.50
2019-02-16T05:44:23.605Z,8.50
2019-02-16T05:46:53.226Z,8.40
2019-02-16T05:49:22.966Z,8.40
2019-02-16T05:51:53.120Z,8.40
2019-02-16T05:54:22.720Z,8.50
2019-02-16T05:56:52.383Z,8.70
2019-02-16T05:59:21.983Z,8.80
2019-02-16T06:01:54.199Z,8.80
2019-02-16T06:04:23.240Z,8.80
2019-02-16T06:06:52.980Z,8.60
2019-02-16T06:09:22.607Z,8.60
2019-02-16T06:11:52.387Z,8.50
2019-02-16T06:14:22.458Z,8.50
2019-02-16T06:16:52.065Z,8.50
2019-02-16T06:19:21.709Z,8.60
2019-02-16T06:21:51.390Z,8.60
2019-02-16T06:24:21.158Z,8.70
2019-02-16T06:26:51.217Z,8.60
2019-02-16T06:29:20.914Z,8.60
2019-02-16T06:31:50.513Z,8.50
2019-02-16T06:34:20.243Z,8.50
2019-02-16T06:36:50.035Z,8.50
2019-02-16T06:39:19.694Z,8.40
2019-02-16T06:41:49.406Z,8.40
2019-02-16T06:44:19.055Z,8.40
2019-02-16T06:46:48.794Z,8.40
2019-02-16T06:49:18.451Z,8.40
2019-02-16T06:51:48.078Z,8.40
2019-02-16T06:54:17.769Z,8.40
2019-02-16T06:57:01.339Z,8.40
2019-02-16T06:59:31.106Z,8.40
2019-02-16T07:02:00.802Z,8.50
2019-02-16T07:04:30.432Z,8.50
2019-02-16T07:07:00.149Z,8.40
2019-02-16T07:09:29.887Z,8.40
2019-02-16T07:11:59.536Z,8.50
2019-02-16T07:14:29.246Z,8.60
2019-02-16T07:17:16.761Z,8.60
2019-02-16T07:19:48.280Z,8.70
2019-02-16T07:22:18.271Z,8.80
2019-02-16T07:24:47.820Z,8.80
2019-02-16T07:27:17.473Z,8.90
2019-02-16T07:29:47.158Z,9.00
2019-02-16T07:32:16.795Z,9.00
2019-02-16T07:34:46.457Z,9.10
2019-02-16T07:37:16.146Z,9.10
2019-02-16T07:39:45.890Z,9.10
2019-02-16T07:42:15.495Z,9.10
2019-02-16T07:44:52.626Z,9.10
2019-02-16T07:47:24.300Z,9.20
2019-02-16T07:49:55.656Z,9.20
2019-02-16T07:52:29.634Z,9.20
2019-02-16T07:55:12.581Z,9.20
2019-02-16T07:57:49.845Z,9.30
2019-02-16T08:00:21.345Z,9.50
2019-02-16T08:02:55.110Z,9.60
2019-02-16T08:05:35.407Z,9.60
2019-02-16T08:08:06.651Z,9.70
2019-02-16T08:10:46.711Z,9.90
2019-02-16T08:13:33.221Z,10.10
2019-02-16T08:16:10.058Z,10.10
2019-02-16T08:18:53.405Z,10.00
2019-02-16T08:21:36.793Z,10.00
2019-02-16T08:24:10.968Z,10.10
2019-02-16T08:26:45.356Z,10.30
2019-02-16T08:29:19.285Z,10.30
2019-02-16T08:31:56.846Z,10.40
2019-02-16T08:34:28.142Z,10.40
2019-02-16T08:37:15.500Z,10.50
2019-02-16T08:39:49.775Z,10.60
2019-02-16T08:42:37.600Z,10.70
2019-02-16T08:45:09.683Z,10.80
2019-02-16T08:47:41.051Z,11.00
2019-02-16T08:50:15.309Z,11.00
2019-02-16T08:55:47.069Z,11.90
2019-02-16T08:58:18.452Z,12.70
2019-02-16T09:00:52.670Z,13.40
2019-02-16T09:03:27.139Z,14.20
2019-02-16T09:06:04.097Z,15.10
2019-02-16T09:08:35.462Z,15.70
2019-02-16T09:11:12.600Z,16.70
2019-02-16T09:13:46.633Z,17.40
2019-02-16T09:16:20.372Z,18.30
2019-02-16T09:18:54.309Z,19.10
2019-02-16T09:21:31.335Z,19.90
2019-02-16T09:24:05.369Z,20.50
2019-02-16T09:26:45.399Z,21.00
2019-02-16T09:29:19.556Z,21.40
2019-02-16T09:31:50.860Z,21.70
2019-02-16T09:34:22.270Z,22.20
2019-02-16T09:36:59.522Z,22.50
2019-02-16T09:39:31.006Z,22.70
2019-02-16T09:42:02.336Z,23.10
2019-02-16T09:44:33.743Z,23.40
2019-02-16T09:47:05.021Z,23.70
2019-02-16T09:49:39.091Z,23.90
2019-02-16T09:52:12.922Z,24.30
2019-02-16T09:54:44.151Z,24.60
2019-02-16T09:57:31.754Z,24.90
2019-02-16T10:00:15.104Z,25.30
2019-02-16T10:02:55.982Z,25.60
2019-02-16T10:05:27.382Z,25.90
2019-02-16T10:08:15.116Z,26.20
2019-02-16T10:10:46.771Z,26.50
2019-02-16T10:13:30.247Z,26.80
2019-02-16T10:16:04.514Z,27.00
2019-02-16T10:18:35.882Z,27.40
2019-02-16T10:21:09.747Z,27.70
2019-02-16T10:23:43.843Z,27.90
2019-02-16T10:26:15.137Z,28.20
2019-02-16T10:28:46.385Z,28.60
2019-02-16T10:31:20.712Z,28.90
2019-02-16T10:33:51.990Z,29.10
2019-02-16T10:36:39.529Z,29.30
2019-02-16T10:39:28.867Z,29.50
2019-02-16T10:42:15.643Z,29.70
2019-02-16T10:44:46.903Z,30.00
2019-02-16T10:47:21.299Z,30.20
2019-02-16T10:50:09.109Z,30.40
2019-02-16T10:52:56.926Z,30.50
2019-02-16T10:55:43.587Z,30.70
2019-02-16T10:58:14.975Z,31.00
2019-02-16T11:00:46.533Z,31.20
2019-02-16T11:03:20.613Z,31.40
2019-02-16T11:06:04.200Z,31.70
2019-02-16T11:08:38.355Z,31.80
2019-02-16T11:11:15.203Z,31.90
2019-02-16T11:14:02.506Z,32.10
2019-02-16T11:16:36.931Z,32.00
2019-02-16T11:19:08.215Z,31.90
2019-02-16T11:21:39.649Z,31.90
2019-02-16T11:24:10.926Z,31.80
2019-02-16T11:26:48.279Z,31.80
2019-02-16T11:29:34.655Z,32.10
2019-02-16T11:32:11.809Z,32.20
2019-02-16T11:35:01.103Z,32.30
2019-02-16T11:37:32.378Z,32.70
2019-02-16T11:40:06.483Z,32.80
2019-02-16T11:42:43.540Z,33.10
2019-02-16T11:45:17.444Z,33.30
2019-02-16T11:47:52.049Z,33.60
2019-02-16T11:50:33.677Z,33.90
2019-02-16T11:53:22.169Z,34.00
2019-02-16T11:55:59.468Z,33.90
2019-02-16T11:58:36.490Z,34.00
2019-02-16T12:01:07.861Z,33.70
2019-02-16T12:03:42.170Z,33.60
2019-02-16T12:06:13.427Z,33.40
2019-02-16T12:08:47.647Z,33.10
2019-02-16T12:11:19.005Z,33.00
2019-02-16T12:13:50.354Z,32.90
2019-02-16T12:16:21.683Z,32.50
2019-02-16T12:18:55.805Z,32.40
2019-02-16T12:21:39.366Z,32.60
2019-02-16T12:24:10.711Z,32.60
2019-02-16T12:26:44.674Z,32.70
2019-02-16T12:29:32.141Z,32.70
2019-02-16T12:32:21.487Z,32.70
2019-02-16T12:34:55.689Z,32.70
2019-02-16T12:37:27.128Z,32.60
2019-02-16T12:40:04.466Z,32.70
2019-02-16T12:42:35.735Z,32.70
2019-02-16T12:45:14.136Z,32.50
2019-02-16T12:47:54.229Z,32.50
2019-02-16T12:50:25.651Z,32.60
2019-02-16T12:53:12.115Z,32.50
2019-02-16T12:56:01.664Z,32.60
2019-02-16T12:58:32.973Z,32.90
2019-02-16T13:01:13.497Z,33.10
2019-02-16T13:03:47.725Z,33.30
2019-02-16T13:06:28.183Z,33.40
2019-02-16T13:09:15.747Z,33.50
2019-02-16T13:11:53.084Z,33.40
2019-02-16T13:14:27.007Z,33.50
2019-02-16T13:17:07.251Z,33.50
2019-02-16T13:19:44.393Z,33.70
2019-02-16T13:22:18.634Z,33.90
2019-02-16T13:24:49.943Z,34.00
2019-02-16T13:27:27.041Z,34.20
2019-02-16T13:29:58.372Z,34.30
2019-02-16T13:32:46.498Z,34.50
2019-02-16T13:35:26.453Z,34.60
2019-02-16T13:38:06.838Z,34.60
2019-02-16T13:40:40.891Z,34.80
2019-02-16T13:43:29.059Z,35.10
2019-02-16T13:46:00.603Z,35.10
2019-02-16T13:48:31.996Z,35.10
2019-02-16T13:51:03.399Z,35.10
2019-02-16T13:53:37.439Z,35.10
2019-02-16T13:56:11.442Z,35.10
2019-02-16T13:58:56.958Z,35.10
2019-02-16T14:01:30.409Z,35.10
2019-02-16T14:04:04.991Z,35.10
2019-02-16T14:06:36.345Z,35.10
2019-02-16T14:09:07.916Z,35.10
2019-02-16T14:11:42.083Z,35.00
2019-02-16T14:14:16.155Z,35.00
2019-02-16T14:16:50.026Z,34.70
2019-02-16T14:19:19.768Z,34.50
2019-02-16T14:21:49.671Z,34.30
2019-02-16T14:24:21.143Z,34.30
2019-02-16T14:27:10.512Z,34.40
2019-02-16T14:29:40.297Z,34.40
2019-02-16T14:32:09.951Z,34.40
2019-02-16T14:34:39.943Z,34.40
2019-02-16T14:37:11.289Z,34.50
2019-02-16T14:39:40.909Z,34.40
2019-02-16T14:42:10.511Z,34.20
2019-02-16T14:44:41.537Z,34.30
2019-02-16T14:47:11.258Z,34.20
2019-02-16T14:49:40.951Z,34.20
2019-02-16T14:52:10.598Z,34.20
2019-02-16T14:54:40.266Z,34.00
2019-02-16T14:57:09.934Z,33.50
2019-02-16T14:59:39.540Z,33.10
2019-02-16T15:02:09.185Z,33.20
2019-02-16T15:04:39.232Z,33.20
2019-02-16T15:07:09.144Z,33.20
2019-02-16T15:09:39.156Z,33.10
2019-02-16T15:12:09.923Z,33.00
2019-02-16T15:14:39.639Z,32.80
2019-02-16T15:17:09.436Z,32.80
2019-02-16T15:19:39.157Z,32.00
2019-02-16T15:22:08.787Z,31.10
2019-02-16T15:24:38.420Z,30.90
2019-02-16T15:27:08.471Z,30.30
2019-02-16T15:29:38.106Z,29.80
2019-02-16T15:32:08.102Z,29.10
2019-02-16T15:34:37.808Z,28.00
2019-02-16T15:37:07.591Z,27.30
2019-02-16T15:39:37.340Z,26.90
2019-02-16T15:42:06.948Z,26.70
2019-02-16T15:44:36.772Z,26.40
2019-02-16T15:47:06.571Z,26.60
2019-02-16T15:49:36.203Z,26.60
2019-02-16T15:52:05.907Z,26.50
2019-02-16T15:54:35.583Z,26.40
2019-02-16T15:57:05.366Z,26.40
2019-02-16T15:59:35.525Z,26.30
2019-02-16T16:02:05.381Z,26.10
2019-02-16T16:04:35.003Z,25.60
2019-02-16T16:07:07.866Z,25.30
2019-02-16T16:09:51.333Z,25.10
2019-02-16T16:12:25.430Z,24.90
2019-02-16T16:15:02.509Z,24.60
2019-02-16T16:17:49.847Z,24.10
2019-02-16T16:20:24.382Z,23.50
2019-02-16T16:22:55.654Z,22.90
2019-02-16T16:28:12.477Z,22.60
2019-02-16T16:30:56.232Z,22.60
2019-02-16T16:33:30.279Z,22.50
2019-02-16T16:36:18.192Z,22.30
2019-02-16T16:38:52.666Z,22.00
2019-02-16T16:41:33.098Z,21.90
2019-02-16T16:44:04.455Z,21.80
2019-02-16T16:46:35.794Z,21.60
2019-02-16T16:49:20.003Z,21.40
2019-02-16T16:51:54.404Z,21.10
2019-02-16T16:54:25.706Z,20.90
2019-02-16T16:59:50.308Z,20.90
2019-02-16T17:02:27.514Z,20.70
2019-02-16T17:05:04.876Z,20.30
2019-02-16T17:07:38.905Z,20.10
2019-02-16T17:10:16.308Z,19.90
2019-02-16T17:13:02.420Z,19.70
2019-02-16T17:15:50.203Z,19.60
2019-02-16T17:18:30.908Z,19.50
2019-02-16T17:21:08.413Z,19.40
2019-02-16T17:23:45.868Z,19.40
2019-02-16T17:26:17.447Z,19.40
2019-02-16T17:29:03.865Z,19.30
2019-02-16T17:31:35.239Z,19.10
2019-02-16T17:34:12.629Z,19.00
2019-02-16T17:36:43.974Z,18.90
2019-02-16T17:39:18.618Z,18.70
2019-02-16T17:42:02.325Z,18.50
2019-02-16T17:44:49.182Z,18.50
2019-02-16T17:47:37.222Z,18.40
2019-02-16T17:50:22.655Z,18.40
2019-02-16T17:52:54.269Z,18.30
2019-02-16T17:55:28.371Z,18.30
2019-02-16T17:58:00.113Z,18.20
2019-02-16T18:00:36.801Z,18.00
2019-02-16T18:03:11.512Z,17.80
2019-02-16T18:05:48.739Z,17.80
2019-02-16T18:08:36.704Z,17.80
2019-02-16T18:11:08.129Z,17.70
2019-02-16T18:13:39.494Z,17.50
2019-02-16T18:16:13.628Z,17.50
2019-02-16T18:18:47.669Z,17.40
2019-02-16T18:21:25.141Z,17.40
2019-02-16T18:24:02.447Z,17.40
2019-02-16T18:26:36.450Z,17.30
2019-02-16T18:29:23.049Z,17.20
2019-02-16T18:31:59.902Z,17.20
2019-02-16T18:34:46.108Z,17.10
2019-02-16T18:37:45.571Z,17.00
2019-02-16T18:40:22.786Z,17.00
2019-02-16T18:42:54.036Z,16.80
2019-02-16T18:45:34.071Z,16.70
2019-02-16T18:48:11.287Z,16.60
2019-02-16T18:50:42.553Z,16.40
2019-02-16T18:53:31.934Z,16.30
2019-02-16T18:56:09.583Z,16.40
2019-02-16T18:58:46.715Z,16.40
2019-02-16T19:01:27.035Z,16.30
2019-02-16T19:04:14.368Z,16.20
2019-02-16T19:06:48.981Z,16.10
2019-02-16T19:09:20.726Z,16.00
2019-02-16T19:11:57.907Z,15.90
2019-02-16T19:14:45.426Z,15.80
2019-02-16T19:17:22.758Z,15.70
2019-02-16T19:20:29.810Z,15.60
2019-02-16T19:23:08.509Z,15.60
2019-02-16T19:25:40.588Z,15.60
2019-02-16T19:28:31.140Z,15.50
2019-02-16T19:31:05.456Z,15.40
2019-02-16T19:33:55.058Z,15.30
2019-02-16T19:36:26.782Z,15.20
2019-02-16T19:39:00.956Z,15.10
2019-02-16T19:41:34.821Z,15.10
2019-02-16T19:44:06.333Z,15.00
2019-02-16T19:46:40.530Z,15.00
2019-02-16T19:49:12.082Z,15.00
2019-02-16T19:52:05.591Z,15.00
2019-02-16T19:54:36.958Z,15.00
2019-02-16T19:57:14.140Z,14.90
2019-02-16T20:00:22.959Z,14.90
2019-02-16T20:02:54.760Z,14.90
2019-02-16T20:05:51.324Z,14.90
2019-02-16T20:08:22.626Z,14.80
2019-02-16T20:11:12.201Z,14.70
2019-02-16T20:13:43.601Z,14.70
2019-02-16T20:16:15.446Z,14.80
2019-02-16T20:18:59.342Z,14.90
2019-02-16T20:21:33.824Z,15.10
2019-02-16T20:24:05.510Z,15.30
2019-02-16T20:26:37.088Z,15.30
2019-02-16T20:29:17.720Z,15.30
2019-02-16T20:31:58.243Z,15.20
2019-02-16T20:34:29.712Z,15.20
2019-02-16T20:37:10.239Z,15.20
2019-02-16T20:40:00.412Z,15.30
2019-02-16T20:42:37.996Z,15.40
2019-02-16T20:45:22.719Z,15.30
2019-02-16T20:47:54.534Z,15.30
2019-02-16T20:50:31.978Z,15.30
2019-02-16T20:53:03.459Z,15.30
2019-02-16T20:55:47.225Z,15.20
2019-02-16T20:58:27.057Z,15.20
2019-02-16T21:01:12.470Z,15.20
2019-02-16T21:04:02.864Z,15.10
2019-02-16T21:06:40.361Z,15.00
2019-02-16T21:09:15.575Z,15.00
2019-02-16T21:11:56.336Z,15.00
2019-02-16T21:14:27.901Z,15.00
2019-02-16T21:16:59.285Z,14.90
2019-02-16T21:19:30.743Z,14.90
2019-02-16T21:22:11.209Z,14.80
2019-02-16T21:24:42.820Z,14.80
2019-02-16T21:27:22.134Z,14.70
2019-02-16T21:29:56.091Z,14.60
2019-02-16T21:32:27.371Z,14.50
2019-02-16T21:34:58.674Z,14.50
2019-02-16T21:37:32.519Z,14.40
2019-02-16T21:40:03.811Z,14.30
2019-02-16T21:42:50.416Z,14.30
2019-02-16T21:45:22.050Z,14.20
2019-02-16T21:47:56.551Z,14.10
2019-02-16T21:50:33.808Z,14.10
2019-02-16T21:53:05.222Z,14.00
2019-02-16T21:55:42.521Z,14.00
2019-02-16T21:58:13.804Z,14.00
2019-02-16T22:00:59.821Z,14.00
2019-02-16T22:03:33.876Z,14.00
2019-02-16T22:06:21.206Z,13.90
2019-02-16T22:08:54.990Z,13.80
2019-02-16T22:11:47.582Z,13.80
2019-02-16T22:14:17.323Z,13.80
2019-02-16T22:16:47.261Z,13.80
2019-02-16T22:19:17.282Z,13.80
2019-02-16T22:21:46.997Z,13.70
2019-02-16T22:24:16.598Z,13.60
2019-02-16T22:26:46.342Z,13.60
2019-02-16T22:29:15.987Z,13.60
2019-02-16T22:31:45.880Z,13.60
2019-02-16T22:34:15.486Z,13.60
2019-02-16T22:36:45.291Z,13.60
2019-02-16T22:39:15.091Z,13.50
2019-02-16T22:41:45.147Z,13.50
2019-02-16T22:44:14.744Z,13.70
2019-02-16T22:46:44.400Z,13.90
2019-02-16T22:49:14.010Z,14.20
2019-02-16T22:51:43.665Z,14.50
2019-02-16T22:54:13.302Z,14.70
2019-02-16T22:56:43.014Z,14.90
2019-02-16T22:59:13.020Z,15.10
2019-02-16T23:01:43.412Z,15.30
2019-02-16T23:04:13.335Z,15.40
2019-02-16T23:06:43.063Z,15.50
2019-02-16T23:09:14.393Z,15.60
2019-02-16T23:11:44.036Z,15.60
2019-02-16T23:14:13.748Z,15.70
2019-02-16T23:16:43.470Z,15.70
2019-02-16T23:19:13.069Z,15.80
2019-02-16T23:21:42.858Z,15.90
2019-02-16T23:24:12.905Z,15.90
2019-02-16T23:26:42.604Z,15.90
2019-02-16T23:29:12.633Z,16.00
2019-02-16T23:31:42.373Z,16.00
2019-02-16T23:34:12.049Z,16.00
2019-02-16T23:36:41.963Z,16.10
2019-02-16T23:39:12.643Z,16.10
2019-02-16T23:41:42.627Z,16.10
2019-02-16T23:44:12.467Z,16.10
2019-02-16T23:46:42.169Z,16.10
2019-02-16T23:49:11.960Z,16.10
2019-02-16T23:51:41.673Z,16.10
2019-02-16T23:54:11.382Z,16.20
2019-02-16T23:56:41.023Z,16.10
2019-02-16T23:59:10.668Z,16.20
